Time;durP1;ratioP1;P1;durP2;ratioP2;P2;SDS_P1;SDS_P2;PMS_P1;PMS_P2;Temp;Humidity;BMP_temperature;BMP_pressure;BME280_temperature;BME280_humidity;BME280_pressure;Samples;Min_cycle;Max_cycle;Signal;HPM_P1;HPM_P2
2023/04/17 00:02:18;;;;;;;60.58;30.77;;;8.30;99.90;;;;;;5051885;28;20048;-70
2023/04/17 00:04:44;;;;;;;67.32;31.67;;;8.30;99.90;;;;;;5052967;28;20077;-70
2023/04/17 00:07:10;;;;;;;60.30;28.73;;;8.30;99.90;;;;;;5051425;28;20036;-70
2023/04/17 00:09:35;;;;;;;55.53;29.60;;;8.30;99.90;;;;;;5052865;28;20462;-70
2023/04/17 00:12:01;;;;;;;65.07;32.22;;;8.30;99.90;;;;;;5051476;28;20032;-70
2023/04/17 00:14:26;;;;;;;62.85;32.60;;;8.40;99.90;;;;;;5052457;28;20037;-70
2023/04/17 00:16:52;;;;;;;63.20;31.83;;;8.40;99.90;;;;;;5052353;28;20041;-70
2023/04/17 00:19:17;;;;;;;64.93;33.72;;;8.40;99.90;;;;;;5052681;28;20037;-70
2023/04/17 00:21:43;;;;;;;65.07;31.80;;;8.40;99.90;;;;;;5052600;28;20029;-70
2023/04/17 00:24:09;;;;;;;64.07;32.40;;;8.40;99.90;;;;;;5052558;28;20043;-72
2023/04/17 00:26:34;;;;;;;56.25;30.92;;;8.30;99.90;;;;;;5051120;28;20114;-70
2023/04/17 00:29:00;;;;;;;56.17;30.92;;;8.30;99.90;;;;;;5051128;28;20041;-70
2023/04/17 00:31:26;;;;;;;60.50;32.88;;;8.40;99.90;;;;;;5052306;28;20033;-69
2023/04/17 00:33:51;;;;;;;56.78;30.73;;;8.40;99.90;;;;;;5052450;28;20094;-70
2023/04/17 00:36:17;;;;;;;60.83;32.15;;;8.40;99.90;;;;;;5050750;28;20059;-70
2023/04/17 00:38:42;;;;;;;64.32;33.05;;;8.40;99.90;;;;;;5051668;28;20385;-70
2023/04/17 00:41:08;;;;;;;64.93;34.00;;;8.40;99.90;;;;;;5050923;28;20041;-70
2023/04/17 00:43:34;;;;;;;64.10;32.75;;;8.40;99.90;;;;;;5050897;28;20047;-70
2023/04/17 00:46:00;;;;;;;60.38;31.73;;;8.40;99.90;;;;;;5051886;28;20043;-70
2023/04/17 00:48:26;;;;;;;68.90;32.40;;;8.40;99.90;;;;;;5052101;28;20112;-70
2023/04/17 00:50:52;;;;;;;61.75;31.70;;;8.40;99.90;;;;;;5051923;28;20083;-70
2023/04/17 00:53:18;;;;;;;65.05;31.50;;;8.40;99.90;;;;;;5051011;28;20037;-70
2023/04/17 00:55:46;;;;;;;61.60;31.38;;;8.40;99.90;;;;;;5033761;28;20037;-72
2023/04/17 00:58:12;;;;;;;70.75;34.40;;;8.40;99.90;;;;;;5050721;28;20041;-72
2023/04/17 01:00:37;;;;;;;64.32;31.83;;;8.40;99.90;;;;;;5050515;28;20047;-72
2023/04/17 01:03:03;;;;;;;63.63;31.95;;;8.40;99.90;;;;;;5050773;28;20124;-70
2023/04/17 01:05:30;;;;;;;62.92;32.75;;;8.40;99.90;;;;;;5050570;28;20415;-70
2023/04/17 01:07:57;;;;;;;67.20;32.65;;;8.40;99.90;;;;;;5051975;28;20408;-70
2023/04/17 01:10:23;;;;;;;69.88;32.28;;;8.40;99.90;;;;;;5051770;28;20048;-70
2023/04/17 01:13:05;;;;;;;64.15;34.03;;;8.40;99.90;;;;;;5050415;28;20607;-70
2023/04/17 01:15:31;;;;;;;65.40;33.90;;;8.30;99.90;;;;;;5050070;28;20048;-70
2023/04/17 01:17:56;;;;;;;61.25;34.17;;;8.30;99.90;;;;;;5051859;28;20041;-70
2023/04/17 01:20:24;;;;;;;63.22;32.65;;;8.40;99.90;;;;;;5050510;28;20045;-70
2023/04/17 01:22:50;;;;;;;63.95;33.13;;;8.40;99.90;;;;;;5050367;28;20049;-70
2023/04/17 01:25:16;;;;;;;69.28;34.10;;;8.30;99.90;;;;;;5051290;28;20052;-70
2023/04/17 01:27:41;;;;;;;77.65;36.22;;;8.40;99.90;;;;;;5051146;28;20041;-70
2023/04/17 01:30:07;;;;;;;73.93;35.53;;;8.40;99.90;;;;;;5050427;28;20489;-70
2023/04/17 01:32:33;;;;;;;79.82;36.17;;;8.40;99.90;;;;;;5051511;28;20048;-70
2023/04/17 01:34:59;;;;;;;74.43;36.47;;;8.40;99.90;;;;;;5051384;28;20041;-70
2023/04/17 01:37:24;;;;;;;78.30;35.67;;;8.40;99.90;;;;;;5050069;28;20044;-70
2023/04/17 01:39:50;;;;;;;79.82;36.25;;;8.40;99.90;;;;;;5050130;28;20080;-70
2023/04/17 01:42:15;;;;;;;80.28;36.60;;;8.30;99.90;;;;;;5050088;28;20501;-70
2023/04/17 01:44:41;;;;;;;80.55;36.92;;;8.30;99.90;;;;;;5051442;28;20045;-69
2023/04/17 01:47:06;;;;;;;87.28;40.97;;;8.30;99.90;;;;;;5050013;28;20041;-70
2023/04/17 01:49:32;;;;;;;82.32;40.60;;;8.20;99.90;;;;;;5050579;28;20504;-69
2023/04/17 01:51:57;;;;;;;86.32;37.00;;;8.30;99.90;;;;;;5055473;28;20041;-70
2023/04/17 01:54:23;;;;;;;85.13;36.67;;;8.20;99.90;;;;;;5055230;28;20033;-70
2023/04/17 01:56:50;;;;;;;89.65;36.60;;;8.30;99.90;;;;;;5053861;28;20072;-70
2023/04/17 01:59:16;;;;;;;89.30;37.85;;;8.30;99.90;;;;;;5053933;28;20037;-70
2023/04/17 02:01:41;;;;;;;83.65;36.60;;;8.20;99.90;;;;;;5055468;28;20454;-69
2023/04/17 02:04:07;;;;;;;89.25;36.97;;;8.20;99.90;;;;;;5055053;28;20052;-70
2023/04/17 02:06:32;;;;;;;82.43;36.08;;;8.20;99.90;;;;;;5053582;28;20078;-70
2023/04/17 02:08:58;;;;;;;85.38;34.50;;;8.30;99.90;;;;;;5053776;28;20080;-69
2023/04/17 02:11:24;;;;;;;93.63;36.92;;;8.30;99.90;;;;;;5055033;28;20032;-70
2023/04/17 02:13:49;;;;;;;95.68;38.72;;;8.30;99.90;;;;;;5055166;28;20045;-70
2023/04/17 02:16:15;;;;;;;91.80;36.33;;;8.30;99.90;;;;;;5054872;28;20045;-70
2023/04/17 02:18:40;;;;;;;92.68;36.78;;;8.20;99.90;;;;;;5053615;28;20110;-70
2023/04/17 02:21:07;;;;;;;74.38;34.38;;;8.20;99.90;;;;;;5054704;28;20032;-70
2023/04/17 02:23:33;;;;;;;79.03;37.10;;;8.20;99.90;;;;;;5053542;28;20519;-70
2023/04/17 02:25:58;;;;;;;77.70;35.55;;;8.20;99.90;;;;;;5054523;28;20041;-70
2023/04/17 02:28:24;;;;;;;74.22;34.40;;;8.20;99.90;;;;;;5054631;28;20037;-70
2023/04/17 02:30:49;;;;;;;73.47;34.70;;;8.30;99.90;;;;;;5053276;28;20036;-70
2023/04/17 02:33:16;;;;;;;72.68;33.75;;;8.20;99.90;;;;;;5054592;28;20119;-70
2023/04/17 02:35:41;;;;;;;76.10;32.47;;;8.10;99.90;;;;;;5053026;28;20040;-70
2023/04/17 02:38:07;;;;;;;81.72;35.28;;;8.20;99.90;;;;;;5054544;28;20045;-70
2023/04/17 02:40:33;;;;;;;76.40;33.22;;;8.20;99.90;;;;;;5036533;28;20036;-70
2023/04/17 02:42:58;;;;;;;69.70;32.55;;;8.10;99.90;;;;;;5054364;28;20040;-70
2023/04/17 02:45:24;;;;;;;80.53;34.55;;;8.20;99.90;;;;;;5054370;28;20049;-70
2023/04/17 02:47:49;;;;;;;81.25;34.38;;;8.10;99.90;;;;;;5053092;28;20037;-70
2023/04/17 02:50:16;;;;;;;70.13;32.20;;;8.10;99.90;;;;;;5053028;28;20041;-70
2023/04/17 02:52:41;;;;;;;71.43;31.98;;;8.10;99.90;;;;;;5053004;28;20679;-70
2023/04/17 02:55:08;;;;;;;72.50;30.77;;;8.20;99.90;;;;;;5053945;28;20045;-70
2023/04/17 02:57:34;;;;;;;65.03;29.65;;;8.20;99.90;;;;;;5052797;28;20041;-70
2023/04/17 03:00:00;;;;;;;77.75;33.70;;;8.20;99.90;;;;;;5054312;28;20139;-70
2023/04/17 03:02:29;;;;;;;78.32;33.60;;;8.20;99.90;;;;;;5053349;28;20029;-70
2023/04/17 03:04:54;;;;;;;70.53;31.48;;;8.10;99.90;;;;;;5053986;28;20037;-70
2023/04/17 03:07:22;;;;;;;64.75;32.35;;;8.10;99.90;;;;;;5052593;28;20099;-70
2023/04/17 03:09:48;;;;;;;69.07;31.00;;;8.20;99.90;;;;;;5052587;28;20139;-70
2023/04/17 03:12:15;;;;;;;61.70;28.15;;;8.10;99.90;;;;;;5052677;28;20515;-70
2023/04/17 03:14:41;;;;;;;68.53;30.50;;;8.10;99.90;;;;;;5052267;28;20087;-70
2023/04/17 03:17:08;;;;;;;62.92;29.35;;;8.10;99.90;;;;;;5053631;28;20063;-70
2023/04/17 03:19:34;;;;;;;62.33;28.23;;;8.10;99.90;;;;;;5053834;28;20048;-70
2023/04/17 03:22:01;;;;;;;63.15;28.23;;;8.10;99.90;;;;;;5035938;28;20040;-70
2023/04/17 03:24:27;;;;;;;62.05;28.58;;;8.10;99.90;;;;;;5052261;28;20143;-70
2023/04/17 03:26:52;;;;;;;60.65;26.00;;;8.10;99.90;;;;;;5052445;28;20072;-70
2023/04/17 03:29:18;;;;;;;58.35;27.92;;;8.10;99.90;;;;;;5052529;28;20099;-70
2023/04/17 03:31:43;;;;;;;56.97;27.02;;;8.10;99.90;;;;;;5052254;28;20051;-70
2023/04/17 03:34:09;;;;;;;63.17;26.50;;;8.10;99.90;;;;;;5053482;28;20036;-70
2023/04/17 03:36:35;;;;;;;52.00;24.33;;;8.00;99.90;;;;;;5052139;28;20041;-70
2023/04/17 03:39:00;;;;;;;53.83;25.27;;;7.90;99.90;;;;;;5053206;28;20056;-70
2023/04/17 03:41:26;;;;;;;52.30;26.10;;;8.00;99.90;;;;;;5051950;28;20068;-70
2023/04/17 03:43:51;;;;;;;52.28;25.75;;;8.00;99.90;;;;;;5053196;28;20044;-70
2023/04/17 03:46:17;;;;;;;55.00;24.45;;;8.00;99.90;;;;;;5051681;28;20045;-70
2023/04/17 03:48:43;;;;;;;52.60;24.88;;;7.90;99.90;;;;;;5053235;28;20127;-71
2023/04/17 03:51:08;;;;;;;52.88;24.63;;;7.90;99.90;;;;;;5052966;28;20041;-70
2023/04/17 03:53:34;;;;;;;49.63;23.83;;;7.90;99.90;;;;;;5053014;28;20068;-70
2023/04/17 03:56:00;;;;;;;50.10;24.35;;;7.90;99.90;;;;;;5051516;28;20048;-70
2023/04/17 03:58:25;;;;;;;54.88;25.23;;;7.90;99.90;;;;;;5051768;28;20033;-70
2023/04/17 04:00:54;;;;;;;47.97;23.75;;;7.80;99.90;;;;;;5052957;28;20037;-70
2023/04/17 04:03:20;;;;;;;58.20;24.50;;;7.90;99.90;;;;;;5052993;28;20047;-69
2023/04/17 04:05:46;;;;;;;53.40;25.98;;;7.80;99.90;;;;;;5052657;28;20044;-69
2023/04/17 04:08:11;;;;;;;52.33;25.50;;;7.80;99.90;;;;;;5052744;28;20041;-69
2023/04/17 04:10:37;;;;;;;55.85;25.10;;;7.80;99.90;;;;;;5051730;28;20415;-70
2023/04/17 04:13:02;;;;;;;48.70;24.10;;;7.80;99.90;;;;;;5067080;28;20035;-70
2023/04/17 04:15:28;;;;;;;59.50;25.20;;;7.80;99.90;;;;;;5092728;28;20048;-70
2023/04/17 04:17:53;;;;;;;51.10;25.80;;;7.80;99.90;;;;;;5082726;28;20059;-70
2023/04/17 04:20:21;;;;;;;54.83;24.95;;;7.80;99.90;;;;;;5072366;28;20054;-69
2023/04/17 04:22:47;;;;;;;52.50;24.75;;;7.80;99.90;;;;;;5072248;28;20064;-70
2023/04/17 04:25:14;;;;;;;65.32;26.95;;;7.80;99.90;;;;;;5071312;28;20449;-69
2023/04/17 04:27:48;;;;;;;58.80;26.20;;;7.70;99.90;;;;;;5072492;28;20040;-69
2023/04/17 04:30:15;;;;;;;64.70;26.55;;;7.80;99.90;;;;;;5072388;28;20041;-69
2023/04/17 04:32:44;;;;;;;64.38;24.73;;;7.80;99.90;;;;;;5071336;28;20066;-70
2023/04/17 04:35:10;;;;;;;61.17;26.02;;;7.70;99.90;;;;;;5072119;28;20137;-69
2023/04/17 04:37:35;;;;;;;81.50;27.35;;;7.70;99.90;;;;;;5071094;28;20584;-70
2023/04/17 04:40:09;;;;;;;58.55;26.27;;;7.70;99.90;;;;;;5070959;28;20036;-70
2023/04/17 04:42:34;;;;;;;88.40;28.42;;;7.70;99.90;;;;;;5071050;28;20040;-70
2023/04/17 04:45:00;;;;;;;57.85;25.73;;;7.70;99.90;;;;;;5072028;28;20051;-70
2023/04/17 04:47:25;;;;;;;64.55;26.38;;;7.70;99.90;;;;;;5071949;28;20083;-70
2023/04/17 04:49:51;;;;;;;79.63;27.98;;;7.70;99.90;;;;;;5071736;28;20162;-70
2023/04/17 04:52:16;;;;;;;77.88;27.60;;;7.70;99.90;;;;;;5072089;28;20105;-69
2023/04/17 04:54:42;;;;;;;83.90;29.23;;;7.70;99.90;;;;;;5070791;28;20496;-69
2023/04/17 04:57:07;;;;;;;67.00;28.73;;;7.70;99.90;;;;;;5071956;28;20113;-69
2023/04/17 04:59:33;;;;;;;65.72;28.85;;;7.70;99.90;;;;;;5070810;28;20032;-69
2023/04/17 05:01:58;;;;;;;61.45;28.65;;;7.60;99.90;;;;;;5071919;28;20047;-69
2023/04/17 05:04:24;;;;;;;76.13;27.75;;;7.70;99.90;;;;;;5070509;28;20058;-69
2023/04/17 05:06:50;;;;;;;80.30;30.52;;;7.70;99.90;;;;;;5072001;28;20435;-71
2023/04/17 05:09:16;;;;;;;76.97;28.75;;;7.70;99.90;;;;;;5071776;28;20037;-69
2023/04/17 05:11:41;;;;;;;51.65;26.83;;;7.70;99.90;;;;;;5071808;28;20046;-69
2023/04/17 05:14:07;;;;;;;63.75;27.30;;;7.70;99.90;;;;;;5070238;28;20036;-70
2023/04/17 05:16:32;;;;;;;71.43;26.13;;;7.70;99.90;;;;;;5071554;28;20466;-70
2023/04/17 05:18:58;;;;;;;57.80;26.55;;;7.70;99.90;;;;;;5070400;28;20036;-69
2023/04/17 05:21:23;;;;;;;63.20;27.95;;;7.70;99.90;;;;;;5070616;28;20056;-69
2023/04/17 05:23:49;;;;;;;56.78;26.65;;;7.80;99.90;;;;;;5071705;28;20040;-70
2023/04/17 05:26:15;;;;;;;52.83;27.85;;;7.80;99.90;;;;;;5069752;28;20394;-70
2023/04/17 05:28:40;;;;;;;58.83;25.83;;;7.70;99.90;;;;;;5071626;28;20040;-71
2023/04/17 05:31:06;;;;;;;54.90;27.65;;;7.80;99.90;;;;;;5071519;28;20047;-70
2023/04/17 05:33:31;;;;;;;54.65;28.13;;;7.80;99.90;;;;;;5070630;28;20041;-70
2023/04/17 05:35:57;;;;;;;59.47;28.40;;;7.90;99.90;;;;;;5071511;28;20106;-70
2023/04/17 05:38:23;;;;;;;55.53;27.27;;;7.90;99.90;;;;;;5071773;28;20033;-70
2023/04/17 05:40:48;;;;;;;58.47;28.45;;;7.90;99.90;;;;;;5071682;28;20033;-70
2023/04/17 05:43:14;;;;;;;54.97;27.83;;;8.00;99.90;;;;;;5070168;28;20029;-70
2023/04/17 05:45:42;;;;;;;53.40;26.42;;;8.00;99.90;;;;;;5071270;28;20500;-70
2023/04/17 05:48:08;;;;;;;58.42;27.63;;;8.10;99.90;;;;;;5065220;28;20082;-70
2023/04/17 05:50:33;;;;;;;53.75;28.17;;;8.10;99.90;;;;;;5052722;28;20048;-73
2023/04/17 05:52:59;;;;;;;59.92;27.95;;;8.10;99.90;;;;;;5033363;28;20123;-70
2023/04/17 05:55:24;;;;;;;46.50;25.13;;;8.20;99.90;;;;;;5050674;28;20128;-72
2023/04/17 05:57:50;;;;;;;47.90;26.17;;;8.20;99.90;;;;;;5049702;28;20033;-72
2023/04/17 06:00:16;;;;;;;46.08;26.17;;;8.20;99.90;;;;;;5064311;28;20036;-72
2023/04/17 06:02:42;;;;;;;50.25;25.92;;;8.20;99.90;;;;;;5069709;28;20139;-72
2023/04/17 06:05:08;;;;;;;47.17;26.02;;;8.30;99.90;;;;;;5069883;28;20166;-72
2023/04/17 06:07:37;;;;;;;53.33;26.77;;;8.20;99.90;;;;;;5071198;28;20040;-72
2023/04/17 06:10:04;;;;;;;46.72;23.60;;;8.30;99.90;;;;;;5069903;28;20048;-72
2023/04/17 06:12:30;;;;;;;49.45;25.05;;;8.30;99.90;;;;;;5070115;28;20040;-72
2023/04/17 06:14:55;;;;;;;50.03;26.80;;;8.30;99.90;;;;;;5069581;28;20519;-72
2023/04/17 06:17:21;;;;;;;42.33;25.70;;;8.40;99.90;;;;;;5069890;28;20036;-73
2023/04/17 06:19:46;;;;;;;49.53;26.67;;;8.40;99.90;;;;;;5069801;28;20036;-72
2023/04/17 06:22:12;;;;;;;48.10;25.88;;;8.50;99.90;;;;;;5070064;28;20478;-72
2023/04/17 06:24:37;;;;;;;40.13;24.95;;;8.50;99.90;;;;;;5069811;28;20596;-72
2023/04/17 06:27:03;;;;;;;48.53;24.90;;;8.50;99.90;;;;;;5069408;28;20036;-72
2023/04/17 06:29:29;;;;;;;44.95;25.20;;;8.50;99.90;;;;;;5069540;28;20127;-72
2023/04/17 06:31:55;;;;;;;41.45;25.02;;;8.60;99.90;;;;;;5069480;28;20063;-72
2023/04/17 06:34:21;;;;;;;43.08;24.48;;;8.70;99.90;;;;;;5069462;28;20106;-74
2023/04/17 06:36:46;;;;;;;44.10;23.95;;;8.70;99.90;;;;;;5053842;28;20486;-74
2023/04/17 06:39:12;;;;;;;43.88;25.48;;;8.70;99.90;;;;;;5073442;28;20037;-74
2023/04/17 06:41:38;;;;;;;40.88;24.30;;;8.80;99.90;;;;;;5073180;28;20102;-72
2023/04/17 06:44:03;;;;;;;43.63;24.35;;;8.80;99.90;;;;;;5073098;28;20097;-72
2023/04/17 06:46:29;;;;;;;43.30;25.60;;;8.90;99.90;;;;;;5072857;28;20072;-72
2023/04/17 06:48:56;;;;;;;48.58;25.80;;;8.90;99.90;;;;;;5074434;28;20036;-72
2023/04/17 06:51:24;;;;;;;41.70;23.73;;;8.90;99.90;;;;;;5056433;28;20078;-72
2023/04/17 06:53:49;;;;;;;40.97;24.25;;;9.00;99.90;;;;;;5074410;28;20045;-72
2023/04/17 06:56:15;;;;;;;44.00;23.73;;;9.10;99.90;;;;;;5072651;28;20108;-72
2023/04/17 06:58:43;;;;;;;37.92;23.13;;;9.20;99.90;;;;;;5072909;28;20097;-72
2023/04/17 07:01:14;;;;;;;40.25;23.95;;;9.30;99.90;;;;;;5072756;28;20037;-72
2023/04/17 07:03:41;;;;;;;36.22;22.63;;;9.40;99.90;;;;;;5072803;28;20045;-72
2023/04/17 07:06:08;;;;;;;35.80;22.48;;;9.50;99.90;;;;;;5072836;28;20502;-72
2023/04/17 07:08:33;;;;;;;35.97;23.48;;;9.60;99.90;;;;;;5072769;28;20051;-72
2023/04/17 07:11:00;;;;;;;34.97;22.20;;;9.70;99.90;;;;;;5072600;28;20044;-72
2023/04/17 07:13:30;;;;;;;38.40;22.45;;;9.70;99.90;;;;;;5072487;28;20049;-72
2023/04/17 07:15:56;;;;;;;35.55;22.02;;;9.90;99.90;;;;;;5072237;28;20047;-72
2023/04/17 07:18:24;;;;;;;37.63;23.33;;;9.80;99.90;;;;;;5072587;28;20044;-73
2023/04/17 07:20:50;;;;;;;32.42;21.67;;;10.00;99.90;;;;;;5072730;28;20058;-72
2023/04/17 07:23:15;;;;;;;33.85;22.77;;;10.10;99.90;;;;;;5072362;28;20496;-72
2023/04/17 07:25:41;;;;;;;37.83;23.02;;;10.20;99.90;;;;;;5073455;28;20384;-73
2023/04/17 07:28:06;;;;;;;36.45;24.20;;;10.30;99.90;;;;;;5072369;28;20047;-73
2023/04/17 07:30:32;;;;;;;35.22;23.20;;;10.50;99.90;;;;;;5073782;28;20049;-73
2023/04/17 07:33:00;;;;;;;37.35;23.23;;;10.50;99.90;;;;;;5072269;28;20039;-72
2023/04/17 07:35:26;;;;;;;34.40;23.88;;;10.50;99.90;;;;;;5072115;28;20395;-72
2023/04/17 07:37:51;;;;;;;37.90;25.20;;;10.40;99.90;;;;;;5072040;28;20040;-72
2023/04/17 07:40:17;;;;;;;35.15;24.13;;;10.50;99.90;;;;;;5070477;28;20040;-73
2023/04/17 07:42:42;;;;;;;38.15;24.80;;;10.50;99.90;;;;;;5071772;28;20044;-74
2023/04/17 07:45:09;;;;;;;40.13;25.42;;;10.50;99.90;;;;;;5071783;28;20041;-74
2023/04/17 07:47:35;;;;;;;33.97;25.20;;;10.60;99.90;;;;;;5071579;28;20056;-72
2023/04/17 07:50:00;;;;;;;40.97;26.15;;;10.70;99.90;;;;;;5071900;28;20052;-75
2023/04/17 07:52:26;;;;;;;34.83;24.33;;;10.80;99.90;;;;;;5071961;28;20036;-74
2023/04/17 07:54:52;;;;;;;35.15;24.35;;;10.90;99.90;;;;;;5071739;28;20436;-74
2023/04/17 07:57:17;;;;;;;34.78;24.92;;;10.90;99.90;;;;;;5071424;28;20487;-73
2023/04/17 07:59:44;;;;;;;37.92;26.45;;;11.00;99.90;;;;;;5071678;28;20033;-71
2023/04/17 08:02:10;;;;;;;35.35;24.80;;;11.10;99.90;;;;;;5072001;28;20443;-72
2023/04/17 08:04:36;;;;;;;33.45;23.42;;;11.20;99.90;;;;;;5071793;28;20040;-72
2023/04/17 08:07:02;;;;;;;36.50;23.77;;;11.30;99.90;;;;;;5071458;28;20098;-72
2023/04/17 08:09:27;;;;;;;34.58;23.15;;;11.20;99.90;;;;;;5071474;28;20044;-72
2023/04/17 08:11:53;;;;;;;31.50;22.25;;;11.40;99.90;;;;;;5055039;28;20389;-72
2023/04/17 08:14:19;;;;;;;33.05;22.45;;;11.40;99.90;;;;;;5071277;28;20052;-72
2023/04/17 08:16:46;;;;;;;32.75;22.60;;;11.60;99.90;;;;;;5071303;28;20116;-72
2023/04/17 08:19:12;;;;;;;28.20;20.63;;;11.70;99.90;;;;;;5071279;28;20103;-72
2023/04/17 08:21:37;;;;;;;29.75;19.50;;;11.70;99.90;;;;;;5071600;28;20040;-72
2023/04/17 08:24:03;;;;;;;26.30;18.83;;;11.70;99.90;;;;;;5071268;28;20503;-72
2023/04/17 08:26:29;;;;;;;28.08;20.73;;;11.60;99.90;;;;;;5070789;28;20048;-72
2023/04/17 08:28:54;;;;;;;25.10;18.40;;;11.60;99.90;;;;;;5071140;28;20035;-73
2023/04/17 08:31:20;;;;;;;26.63;18.88;;;11.60;99.90;;;;;;5054745;28;20032;-73
2023/04/17 08:33:46;;;;;;;26.75;18.25;;;11.70;99.90;;;;;;5054692;28;20076;-72
2023/04/17 08:36:12;;;;;;;27.52;18.80;;;11.90;99.90;;;;;;5070641;28;20508;-72
2023/04/17 08:38:37;;;;;;;25.15;17.88;;;12.00;99.90;;;;;;5071350;28;20099;-72
2023/04/17 08:41:05;;;;;;;25.63;17.40;;;12.10;99.90;;;;;;5070764;28;20036;-72
2023/04/17 08:43:33;;;;;;;23.73;16.83;;;12.20;99.90;;;;;;5070998;28;20040;-72
2023/04/17 08:45:59;;;;;;;23.08;17.33;;;12.40;99.90;;;;;;5070941;28;20523;-72
2023/04/17 08:48:25;;;;;;;22.98;17.15;;;12.60;99.90;;;;;;5070971;28;20040;-72
2023/04/17 08:50:52;;;;;;;24.98;17.17;;;12.80;99.90;;;;;;5070715;28;20048;-72
2023/04/17 08:53:19;;;;;;;20.67;14.02;;;12.80;99.90;;;;;;5070863;28;20037;-72
2023/04/17 08:55:45;;;;;;;23.02;16.25;;;13.00;99.90;;;;;;5070329;28;20040;-72
2023/04/17 08:58:12;;;;;;;21.80;15.70;;;13.10;99.90;;;;;;5070821;28;20044;-72
2023/04/17 09:00:42;;;;;;;19.65;14.65;;;13.00;99.90;;;;;;5070182;28;20036;-73
2023/04/17 09:03:11;;;;;;;27.40;17.05;;;12.90;99.90;;;;;;5054094;28;20419;-72
2023/04/17 09:05:38;;;;;;;20.40;15.35;;;12.90;99.90;;;;;;5069720;28;20051;-73
2023/04/17 09:08:22;;;;;;;22.90;15.48;;;13.10;99.90;;;;;;5070321;28;20416;-72
2023/04/17 09:10:53;;;;;;;23.92;16.08;;;13.30;99.90;;;;;;5070785;28;20040;-72
2023/04/17 09:13:24;;;;;;;23.98;16.10;;;13.30;99.90;;;;;;5070577;28;20036;-73
2023/04/17 09:16:06;;;;;;;20.23;14.60;;;13.40;99.90;;;;;;5070199;28;20082;-73
2023/04/17 09:18:32;;;;;;;23.23;15.88;;;13.40;99.90;;;;;;5070496;28;20041;-71
2023/04/17 09:20:59;;;;;;;24.90;16.48;;;13.50;99.90;;;;;;5071681;28;20098;-73
2023/04/17 09:23:27;;;;;;;22.85;16.42;;;13.50;99.90;;;;;;5070438;28;20033;-72
2023/04/17 09:26:09;;;;;;;22.85;16.58;;;13.70;99.90;;;;;;5053693;28;20155;-72
2023/04/17 09:28:38;;;;;;;20.00;15.02;;;13.70;99.90;;;;;;5070437;28;20047;-72
2023/04/17 09:31:05;;;;;;;20.25;15.45;;;13.60;99.90;;;;;;5070299;28;20048;-72
2023/04/17 09:33:31;;;;;;;21.45;15.50;;;13.60;99.90;;;;;;5070351;28;20052;-73
2023/04/17 09:36:20;;;;;;;19.55;14.88;;;13.50;99.90;;;;;;5070040;28;20048;-72
2023/04/17 09:38:46;;;;;;;18.80;14.13;;;13.60;99.90;;;;;;5053919;28;20083;-72
2023/04/17 09:41:33;;;;;;;18.83;14.10;;;13.80;99.90;;;;;;5070163;28;20037;-72
2023/04/17 09:44:00;;;;;;;20.83;14.80;;;14.10;99.90;;;;;;5070232;28;20055;-72
2023/04/17 09:46:44;;;;;;;22.55;14.20;;;14.40;99.90;;;;;;5071394;28;20043;-72
2023/04/17 09:49:28;;;;;;;17.25;13.90;;;14.50;99.90;;;;;;5070267;28;20395;-72
2023/04/17 09:51:55;;;;;;;18.95;14.82;;;14.80;99.90;;;;;;5070478;28;20048;-72
2023/04/17 09:54:22;;;;;;;16.73;13.30;;;14.70;99.90;;;;;;5071175;28;20062;-72
2023/04/17 09:56:48;;;;;;;19.23;14.98;;;14.70;99.90;;;;;;5069966;28;20029;-72
2023/04/17 09:59:14;;;;;;;19.77;14.32;;;14.70;99.90;;;;;;5071251;28;20546;-72
2023/04/17 10:01:41;;;;;;;18.35;14.73;;;14.70;99.90;;;;;;5070298;28;20036;-72
2023/04/17 10:04:07;;;;;;;20.17;14.88;;;14.60;99.90;;;;;;5069950;28;20407;-72
2023/04/17 10:06:34;;;;;;;21.70;15.23;;;14.60;99.90;;;;;;5070959;28;20190;-73
2023/04/17 10:08:59;;;;;;;23.35;14.63;;;14.30;99.90;;;;;;5071358;28;20036;-74
2023/04/17 10:11:29;;;;;;;23.63;15.98;;;14.20;99.90;;;;;;5072025;28;20036;-71
2023/04/17 10:14:08;;;;;;;18.48;14.15;;;14.00;99.90;;;;;;5075210;28;20520;-71
2023/04/17 10:16:38;;;;;;;19.80;14.20;;;14.00;99.90;;;;;;5073436;28;20053;-72
2023/04/17 10:19:26;;;;;;;22.25;15.20;;;13.80;99.90;;;;;;5073900;28;20071;-72
2023/04/17 10:22:27;;;;;;;20.75;13.98;;;13.80;99.90;;;;;;5073527;28;20100;-72
2023/04/17 10:25:11;;;;;;;19.27;15.25;;;13.60;99.90;;;;;;5074753;28;20044;-72
2023/04/17 10:27:37;;;;;;;25.58;15.65;;;13.80;99.90;;;;;;5056746;28;20049;-71
2023/04/17 10:30:06;;;;;;;24.40;16.27;;;13.80;99.90;;;;;;5073453;28;20055;-71
2023/04/17 10:32:33;;;;;;;21.17;15.27;;;13.70;99.90;;;;;;5073690;28;20106;-71
2023/04/17 10:35:19;;;;;;;20.65;15.20;;;13.80;99.90;;;;;;5074592;28;20064;-72
2023/04/17 10:37:50;;;;;;;17.38;14.20;;;13.90;99.90;;;;;;5062870;28;20045;-72
2023/04/17 10:40:24;;;;;;;22.55;16.70;;;13.80;99.90;;;;;;5056526;28;20041;-71
2023/04/17 10:43:10;;;;;;;19.38;14.68;;;13.80;99.90;;;;;;5073206;28;20043;-72
2023/04/17 10:46:00;;;;;;;19.42;15.02;;;13.70;99.90;;;;;;5074250;28;20048;-71
2023/04/17 10:48:35;;;;;;;19.45;15.63;;;13.80;99.90;;;;;;5073382;28;20507;-71
2023/04/17 10:51:31;;;;;;;24.58;15.32;;;13.80;99.90;;;;;;5098420;22;20527;-73
2023/04/17 10:53:59;;;;;;;18.08;13.93;;;13.90;99.90;;;;;;5056298;28;20037;-73
2023/04/17 10:56:25;;;;;;;21.58;15.30;;;14.00;99.90;;;;;;5074423;28;20123;-73
2023/04/17 10:59:02;;;;;;;20.95;15.38;;;14.10;99.90;;;;;;5074449;28;20044;-73
2023/04/17 11:01:52;;;;;;;19.92;15.73;;;14.20;99.90;;;;;;5055869;28;20120;-76
2023/04/17 11:04:23;;;;;;;24.55;15.15;;;14.20;99.90;;;;;;5042252;28;20139;-74
2023/04/17 11:06:51;;;;;;;21.60;16.67;;;14.40;99.90;;;;;;5039068;28;20029;-74
2023/04/17 11:09:19;;;;;;;22.23;15.55;;;14.50;99.90;;;;;;5056079;28;20036;-74
2023/04/17 11:11:44;;;;;;;23.98;16.38;;;14.50;99.90;;;;;;5055927;28;20178;-74
2023/04/17 11:14:13;;;;;;;20.92;16.30;;;14.50;99.90;;;;;;5056103;28;20131;-74
2023/04/17 11:16:40;;;;;;;19.98;16.20;;;14.50;99.90;;;;;;5039444;28;20063;-74
2023/04/17 11:19:11;;;;;;;23.23;15.63;;;14.70;99.90;;;;;;5055808;28;20044;-74
2023/04/17 11:22:03;;;;;;;19.65;14.13;;;14.70;99.90;;;;;;5039222;28;20066;-74
2023/04/17 11:24:30;;;;;;;21.40;13.65;;;14.90;99.90;;;;;;5052507;28;20048;-74
2023/04/17 11:26:58;;;;;;;20.17;14.23;;;15.00;99.90;;;;;;5051268;28;20044;-74
2023/04/17 11:29:25;;;;;;;20.02;14.02;;;15.10;99.90;;;;;;5055389;28;20507;-74
2023/04/17 11:31:52;;;;;;;23.98;15.80;;;15.20;99.90;;;;;;5055547;28;20040;-74
2023/04/17 11:34:19;;;;;;;23.80;16.17;;;15.10;99.90;;;;;;5050788;28;20033;-74
2023/04/17 11:36:48;;;;;;;22.73;15.50;;;14.90;99.90;;;;;;5043417;28;20036;-74
2023/04/17 11:39:14;;;;;;;23.73;15.80;;;14.80;99.90;;;;;;5055422;28;20037;-74
2023/04/17 11:41:41;;;;;;;22.10;15.50;;;15.00;99.90;;;;;;5054951;28;20047;-74
2023/04/17 11:44:15;;;;;;;20.65;15.18;;;15.20;99.90;;;;;;5055114;28;20047;-74
2023/04/17 11:46:41;;;;;;;20.85;15.10;;;15.10;99.90;;;;;;5055152;28;20042;-74
2023/04/17 11:49:07;;;;;;;21.67;15.63;;;15.00;99.90;;;;;;5054831;28;20115;-74
2023/04/17 11:51:33;;;;;;;19.17;15.00;;;14.80;99.90;;;;;;5055047;28;20116;-73
2023/04/17 11:53:59;;;;;;;22.10;16.17;;;14.80;99.90;;;;;;5055444;28;20089;-74
2023/04/17 11:56:28;;;;;;;22.55;16.40;;;15.00;99.90;;;;;;5073870;28;20047;-73
2023/04/17 11:58:57;;;;;;;29.05;16.90;;;15.00;99.90;;;;;;5055797;28;20044;-74
2023/04/17 12:01:24;;;;;;;21.80;17.58;;;15.10;99.90;;;;;;5055620;28;20028;-74
2023/04/17 12:03:55;;;;;;;22.00;16.13;;;15.10;99.90;;;;;;5055073;28;20553;-74
2023/04/17 12:06:21;;;;;;;22.27;17.00;;;15.20;99.90;;;;;;5054968;28;20243;-73
2023/04/17 12:08:54;;;;;;;22.25;17.30;;;15.20;99.90;;;;;;5054992;28;20037;-73
2023/04/17 12:11:28;;;;;;;21.23;16.05;;;15.30;99.90;;;;;;5054913;28;20047;-74
2023/04/17 12:13:54;;;;;;;24.13;17.05;;;15.40;99.90;;;;;;5038530;28;20495;-73
2023/04/17 12:16:21;;;;;;;22.08;16.33;;;15.30;99.90;;;;;;5054490;28;20047;-74
2023/04/17 12:18:47;;;;;;;19.25;15.68;;;15.40;99.90;;;;;;5072662;28;20037;-72
2023/04/17 12:21:13;;;;;;;21.35;16.05;;;15.20;99.90;;;;;;5054335;28;20495;-73
2023/04/17 12:23:39;;;;;;;23.30;17.38;;;15.30;99.90;;;;;;5072747;28;20043;-73
2023/04/17 12:26:05;;;;;;;22.58;15.35;;;15.40;99.90;;;;;;5053928;28;20033;-73
2023/04/17 12:28:31;;;;;;;22.10;15.85;;;15.40;99.90;;;;;;5072078;28;20408;-73
2023/04/17 12:30:56;;;;;;;23.63;16.83;;;15.40;99.90;;;;;;5054053;28;20050;-73
2023/04/17 12:33:22;;;;;;;21.98;15.68;;;15.40;99.90;;;;;;5054369;28;20067;-72
2023/04/17 12:35:48;;;;;;;23.67;16.90;;;15.40;99.90;;;;;;5053312;28;20052;-73